sensor_id;sensor_type;location;lat;lon;timestamp;P1;P2;P0
54021;PMS7003;39936;51.058;17.220;2023-02-27T00:01:36;12;11;8
54021;PMS7003;39936;51.058;17.220;2023-02-27T00:05:12;11;9;6
54021;PMS7003;39936;51.058;17.220;2023-02-27T00:08:53;12;8;4
54021;PMS7003;39936;51.058;17.220;2023-02-27T00:12:44;11;10;5
54021;PMS7003;39936;51.058;17.220;2023-02-27T00:15:59;17;10;5
54021;PMS7003;39936;51.058;17.220;2023-02-27T00:19:37;17;13;8
54021;PMS7003;39936;51.058;17.220;2023-02-27T00:23:09;19;14;8
54021;PMS7003;39936;51.058;17.220;2023-02-27T00:26:46;15;11;7
54021;PMS7003;39936;51.058;17.220;2023-02-27T00:30:24;18;13;9
54021;PMS7003;39936;51.058;17.220;2023-02-27T00:34:16;14;13;9
54021;PMS7003;39936;51.058;17.220;2023-02-27T00:37:53;17;13;8
54021;PMS7003;39936;51.058;17.220;2023-02-27T00:41:34;14;12;7
54021;PMS7003;39936;51.058;17.220;2023-02-27T00:45:09;18;11;7
54021;PMS7003;39936;51.058;17.220;2023-02-27T00:48:50;15;11;8
54021;PMS7003;39936;51.058;17.220;2023-02-27T00:56:38;18;15;8
54021;PMS7003;39936;51.058;17.220;2023-02-27T00:59:56;17;12;8
54021;PMS7003;39936;51.058;17.220;2023-02-27T01:03:49;19;14;8
54021;PMS7003;39936;51.058;17.220;2023-02-27T01:07:18;16;14;10
54021;PMS7003;39936;51.058;17.220;2023-02-27T01:10:35;16;9;6
54021;PMS7003;39936;51.058;17.220;2023-02-27T01:14:31;17;13;6
54021;PMS7003;39936;51.058;17.220;2023-02-27T01:18:07;14;13;6
54021;PMS7003;39936;51.058;17.220;2023-02-27T01:21:52;16;13;8
54021;PMS7003;39936;51.058;17.220;2023-02-27T01:25:27;12;10;7
54021;PMS7003;39936;51.058;17.220;2023-02-27T01:29:08;7;7;4
54021;PMS7003;39936;51.058;17.220;2023-02-27T01:32:58;10;7;3
54021;PMS7003;39936;51.058;17.220;2023-02-27T01:40:34;13;12;6
54021;PMS7003;39936;51.058;17.220;2023-02-27T01:44:13;16;13;8
54021;PMS7003;39936;51.058;17.220;2023-02-27T01:47:58;13;9;6
54021;PMS7003;39936;51.058;17.220;2023-02-27T01:51:47;13;8;5
54021;PMS7003;39936;51.058;17.220;2023-02-27T01:55:19;8;6;3
54021;PMS7003;39936;51.058;17.220;2023-02-27T01:58:54;11;8;5
54021;PMS7003;39936;51.058;17.220;2023-02-27T02:06:46;13;10;5
54021;PMS7003;39936;51.058;17.220;2023-02-27T02:10:19;12;10;7
54021;PMS7003;39936;51.058;17.220;2023-02-27T02:14:25;10;9;6
54021;PMS7003;39936;51.058;17.220;2023-02-27T02:26:46;13;11;6
54021;PMS7003;39936;51.058;17.220;2023-02-27T02:30:29;15;11;6
54021;PMS7003;39936;51.058;17.220;2023-02-27T02:49:46;14;8;5
54021;PMS7003;39936;51.058;17.220;2023-02-27T02:56:45;11;9;6
54021;PMS7003;39936;51.058;17.220;2023-02-27T03:00:15;6;5;3
54021;PMS7003;39936;51.058;17.220;2023-02-27T03:03:48;11;9;5
54021;PMS7003;39936;51.058;17.220;2023-02-27T03:07:19;9;7;4
54021;PMS7003;39936;51.058;17.220;2023-02-27T03:10:48;8;7;5
54021;PMS7003;39936;51.058;17.220;2023-02-27T03:15:05;14;12;7
54021;PMS7003;39936;51.058;17.220;2023-02-27T03:18:55;8;8;4
54021;PMS7003;39936;51.058;17.220;2023-02-27T03:22:22;9;7;4
54021;PMS7003;39936;51.058;17.220;2023-02-27T03:25:54;8;8;4
54021;PMS7003;39936;51.058;17.220;2023-02-27T03:29:48;6;6;3
54021;PMS7003;39936;51.058;17.220;2023-02-27T03:33:18;13;9;5
54021;PMS7003;39936;51.058;17.220;2023-02-27T03:48:36;11;7;4
54021;PMS7003;39936;51.058;17.220;2023-02-27T03:52:20;6;5;3
54021;PMS7003;39936;51.058;17.220;2023-02-27T03:55:48;8;6;3
54021;PMS7003;39936;51.058;17.220;2023-02-27T03:59:41;7;5;4
54021;PMS7003;39936;51.058;17.220;2023-02-27T04:03:43;10;6;3
54021;PMS7003;39936;51.058;17.220;2023-02-27T04:23:22;7;7;4
54021;PMS7003;39936;51.058;17.220;2023-02-27T04:30:56;6;4;2
54021;PMS7003;39936;51.058;17.220;2023-02-27T04:34:46;5;4;2
54021;PMS7003;39936;51.058;17.220;2023-02-27T04:38:17;12;9;4
54021;PMS7003;39936;51.058;17.220;2023-02-27T04:42:28;7;6;3
54021;PMS7003;39936;51.058;17.220;2023-02-27T04:46:19;9;7;4
54021;PMS7003;39936;51.058;17.220;2023-02-27T04:57:33;5;5;3
54021;PMS7003;39936;51.058;17.220;2023-02-27T05:01:14;8;4;3
54021;PMS7003;39936;51.058;17.220;2023-02-27T05:04:52;7;5;2
54021;PMS7003;39936;51.058;17.220;2023-02-27T05:08:52;7;5;3
54021;PMS7003;39936;51.058;17.220;2023-02-27T05:25:04;9;6;3
54021;PMS7003;39936;51.058;17.220;2023-02-27T05:28:46;6;6;4
54021;PMS7003;39936;51.058;17.220;2023-02-27T05:39:53;12;10;6
54021;PMS7003;39936;51.058;17.220;2023-02-27T05:43:35;8;7;5
54021;PMS7003;39936;51.058;17.220;2023-02-27T05:47:44;9;5;4
54021;PMS7003;39936;51.058;17.220;2023-02-27T05:51:25;9;7;4
54021;PMS7003;39936;51.058;17.220;2023-02-27T05:54:49;11;9;5
54021;PMS7003;39936;51.058;17.220;2023-02-27T05:58:53;7;7;4
54021;PMS7003;39936;51.058;17.220;2023-02-27T06:03:04;13;8;4
54021;PMS7003;39936;51.058;17.220;2023-02-27T06:07:21;12;8;5
54021;PMS7003;39936;51.058;17.220;2023-02-27T06:11:04;9;8;5
54021;PMS7003;39936;51.058;17.220;2023-02-27T06:14:44;7;7;3
54021;PMS7003;39936;51.058;17.220;2023-02-27T06:18:26;8;8;5
54021;PMS7003;39936;51.058;17.220;2023-02-27T06:22:19;5;4;3
54021;PMS7003;39936;51.058;17.220;2023-02-27T06:26:00;7;6;5
54021;PMS7003;39936;51.058;17.220;2023-02-27T06:30:01;7;7;4
54021;PMS7003;39936;51.058;17.220;2023-02-27T06:37:19;9;7;4
54021;PMS7003;39936;51.058;17.220;2023-02-27T06:40:59;10;7;4
54021;PMS7003;39936;51.058;17.220;2023-02-27T06:44:58;8;5;4
54021;PMS7003;39936;51.058;17.220;2023-02-27T06:49:06;9;9;6
54021;PMS7003;39936;51.058;17.220;2023-02-27T06:52:26;9;8;4
54021;PMS7003;39936;51.058;17.220;2023-02-27T06:56:43;13;11;7
54021;PMS7003;39936;51.058;17.220;2023-02-27T07:00:02;7;7;6
54021;PMS7003;39936;51.058;17.220;2023-02-27T07:03:35;7;6;4
54021;PMS7003;39936;51.058;17.220;2023-02-27T07:07:00;11;7;4
54021;PMS7003;39936;51.058;17.220;2023-02-27T07:10:39;9;7;4
54021;PMS7003;39936;51.058;17.220;2023-02-27T07:14:06;12;9;4
54021;PMS7003;39936;51.058;17.220;2023-02-27T07:17:27;10;8;5
54021;PMS7003;39936;51.058;17.220;2023-02-27T07:20:59;11;8;5
54021;PMS7003;39936;51.058;17.220;2023-02-27T07:24:18;5;4;3
54021;PMS7003;39936;51.058;17.220;2023-02-27T07:27:53;8;4;3
54021;PMS7003;39936;51.058;17.220;2023-02-27T07:31:38;7;5;3
54021;PMS7003;39936;51.058;17.220;2023-02-27T07:38:48;7;2;1
54021;PMS7003;39936;51.058;17.220;2023-02-27T07:42:31;11;8;5
54021;PMS7003;39936;51.058;17.220;2023-02-27T07:46:03;5;4;3
54021;PMS7003;39936;51.058;17.220;2023-02-27T07:49:34;9;7;3
54021;PMS7003;39936;51.058;17.220;2023-02-27T07:52:58;17;11;5
54021;PMS7003;39936;51.058;17.220;2023-02-27T07:56:34;8;7;3
54021;PMS7003;39936;51.058;17.220;2023-02-27T08:00:19;11;9;6
54021;PMS7003;39936;51.058;17.220;2023-02-27T08:04:47;6;5;3
54021;PMS7003;39936;51.058;17.220;2023-02-27T08:08:52;8;5;4
54021;PMS7003;39936;51.058;17.220;2023-02-27T08:12:31;9;6;3
54021;PMS7003;39936;51.058;17.220;2023-02-27T08:16:20;10;8;4
54021;PMS7003;39936;51.058;17.220;2023-02-27T08:20:26;7;7;5
54021;PMS7003;39936;51.058;17.220;2023-02-27T08:24:08;11;11;5
54021;PMS7003;39936;51.058;17.220;2023-02-27T08:28:16;6;5;2
54021;PMS7003;39936;51.058;17.220;2023-02-27T08:31:59;6;6;3
54021;PMS7003;39936;51.058;17.220;2023-02-27T08:35:50;13;8;4
54021;PMS7003;39936;51.058;17.220;2023-02-27T08:39:10;8;8;5
54021;PMS7003;39936;51.058;17.220;2023-02-27T08:42:45;11;8;5
54021;PMS7003;39936;51.058;17.220;2023-02-27T08:46:04;6;4;2
54021;PMS7003;39936;51.058;17.220;2023-02-27T08:50:30;15;7;4
54021;PMS7003;39936;51.058;17.220;2023-02-27T08:54:23;7;6;4
54021;PMS7003;39936;51.058;17.220;2023-02-27T08:57:56;8;7;3
54021;PMS7003;39936;51.058;17.220;2023-02-27T09:01:17;8;6;4
54021;PMS7003;39936;51.058;17.220;2023-02-27T09:04:33;6;4;3
54021;PMS7003;39936;51.058;17.220;2023-02-27T09:07:55;7;7;4
54021;PMS7003;39936;51.058;17.220;2023-02-27T09:11:59;8;6;4
54021;PMS7003;39936;51.058;17.220;2023-02-27T09:19:49;6;5;2
54021;PMS7003;39936;51.058;17.220;2023-02-27T09:23:11;11;10;5
54021;PMS7003;39936;51.058;17.220;2023-02-27T09:27:01;5;4;3
54021;PMS7003;39936;51.058;17.220;2023-02-27T09:30:24;12;8;5
54021;PMS7003;39936;51.058;17.220;2023-02-27T09:37:46;7;7;4
54021;PMS7003;39936;51.058;17.220;2023-02-27T09:41:06;11;5;3
54021;PMS7003;39936;51.058;17.220;2023-02-27T09:44:52;10;7;3
54021;PMS7003;39936;51.058;17.220;2023-02-27T09:48:54;9;8;4
54021;PMS7003;39936;51.058;17.220;2023-02-27T09:52:27;11;6;4
54021;PMS7003;39936;51.058;17.220;2023-02-27T09:55:44;7;6;3
54021;PMS7003;39936;51.058;17.220;2023-02-27T10:02:43;8;7;4
54021;PMS7003;39936;51.058;17.220;2023-02-27T10:06:37;9;5;3
54021;PMS7003;39936;51.058;17.220;2023-02-27T10:14:40;11;10;5
54021;PMS7003;39936;51.058;17.220;2023-02-27T10:18:17;6;5;3
54021;PMS7003;39936;51.058;17.220;2023-02-27T10:21:49;6;6;3
54021;PMS7003;39936;51.058;17.220;2023-02-27T10:25:39;8;6;3
54021;PMS7003;39936;51.058;17.220;2023-02-27T10:29:35;6;4;2
54021;PMS7003;39936;51.058;17.220;2023-02-27T10:36:59;6;6;3
54021;PMS7003;39936;51.058;17.220;2023-02-27T10:40:42;6;6;4
54021;PMS7003;39936;51.058;17.220;2023-02-27T10:44:23;10;9;5
54021;PMS7003;39936;51.058;17.220;2023-02-27T10:47:45;17;12;7
54021;PMS7003;39936;51.058;17.220;2023-02-27T10:51:27;11;10;6
54021;PMS7003;39936;51.058;17.220;2023-02-27T10:54:47;9;6;4
54021;PMS7003;39936;51.058;17.220;2023-02-27T10:58:06;8;7;4
54021;PMS7003;39936;51.058;17.220;2023-02-27T11:06:13;10;8;4
54021;PMS7003;39936;51.058;17.220;2023-02-27T11:09:35;5;3;1
54021;PMS7003;39936;51.058;17.220;2023-02-27T11:12:58;7;5;3
54021;PMS7003;39936;51.058;17.220;2023-02-27T11:16:59;6;4;3
54021;PMS7003;39936;51.058;17.220;2023-02-27T11:30:43;5;5;2
54021;PMS7003;39936;51.058;17.220;2023-02-27T11:34:45;8;7;4
54021;PMS7003;39936;51.058;17.220;2023-02-27T11:37:50;6;4;1
54021;PMS7003;39936;51.058;17.220;2023-02-27T11:42:06;5;3;2
54021;PMS7003;39936;51.058;17.220;2023-02-27T11:45:58;7;5;2
54021;PMS7003;39936;51.058;17.220;2023-02-27T11:54:12;4;4;1
54021;PMS7003;39936;51.058;17.220;2023-02-27T11:57:41;3;2;0
54021;PMS7003;39936;51.058;17.220;2023-02-27T12:01:04;3;3;1
54021;PMS7003;39936;51.058;17.220;2023-02-27T12:04:38;4;4;3
54021;PMS7003;39936;51.058;17.220;2023-02-27T12:16:11;5;5;4
54021;PMS7003;39936;51.058;17.220;2023-02-27T12:35:33;13;12;6
54021;PMS7003;39936;51.058;17.220;2023-02-27T12:39:16;11;9;5
54021;PMS7003;39936;51.058;17.220;2023-02-27T12:42:40;13;10;7
54021;PMS7003;39936;51.058;17.220;2023-02-27T12:50:18;11;11;7
54021;PMS7003;39936;51.058;17.220;2023-02-27T13:10:22;13;10;6
54021;PMS7003;39936;51.058;17.220;2023-02-27T13:18:26;8;8;5
54021;PMS7003;39936;51.058;17.220;2023-02-27T13:34:01;13;9;7
54021;PMS7003;39936;51.058;17.220;2023-02-27T13:37:55;12;9;6
54021;PMS7003;39936;51.058;17.220;2023-02-27T13:41:41;11;7;4
54021;PMS7003;39936;51.058;17.220;2023-02-27T13:45:51;12;10;6
54021;PMS7003;39936;51.058;17.220;2023-02-27T13:53:44;12;11;8
54021;PMS7003;39936;51.058;17.220;2023-02-27T13:57:30;16;10;7
54021;PMS7003;39936;51.058;17.220;2023-02-27T14:01:15;16;13;7
54021;PMS7003;39936;51.058;17.220;2023-02-27T14:04:58;9;9;6
54021;PMS7003;39936;51.058;17.220;2023-02-27T14:09:19;14;12;7
54021;PMS7003;39936;51.058;17.220;2023-02-27T14:12:50;17;13;7
54021;PMS7003;39936;51.058;17.220;2023-02-27T14:17:04;24;18;11
54021;PMS7003;39936;51.058;17.220;2023-02-27T14:24:53;27;25;17
54021;PMS7003;39936;51.058;17.220;2023-02-27T14:28:52;23;20;12
54021;PMS7003;39936;51.058;17.220;2023-02-27T14:37:26;23;21;13
54021;PMS7003;39936;51.058;17.220;2023-02-27T14:45:11;20;11;8
54021;PMS7003;39936;51.058;17.220;2023-02-27T14:48:29;16;11;7
54021;PMS7003;39936;51.058;17.220;2023-02-27T14:51:48;17;15;10
54021;PMS7003;39936;51.058;17.220;2023-02-27T14:55:33;23;21;12
54021;PMS7003;39936;51.058;17.220;2023-02-27T14:58:53;16;13;9
54021;PMS7003;39936;51.058;17.220;2023-02-27T15:02:29;17;16;8
54021;PMS7003;39936;51.058;17.220;2023-02-27T15:06:17;18;14;8
54021;PMS7003;39936;51.058;17.220;2023-02-27T15:10:17;24;20;12
54021;PMS7003;39936;51.058;17.220;2023-02-27T15:14:29;14;11;7
54021;PMS7003;39936;51.058;17.220;2023-02-27T15:17:49;10;9;6
54021;PMS7003;39936;51.058;17.220;2023-02-27T15:21:44;19;16;9
54021;PMS7003;39936;51.058;17.220;2023-02-27T15:25:24;17;11;8
54021;PMS7003;39936;51.058;17.220;2023-02-27T15:28:51;21;19;10
54021;PMS7003;39936;51.058;17.220;2023-02-27T15:36:04;21;15;9
54021;PMS7003;39936;51.058;17.220;2023-02-27T15:39:35;19;19;11
54021;PMS7003;39936;51.058;17.220;2023-02-27T15:44:05;20;17;11
54021;PMS7003;39936;51.058;17.220;2023-02-27T15:47:28;27;21;13
54021;PMS7003;39936;51.058;17.220;2023-02-27T15:51:05;22;13;9
54021;PMS7003;39936;51.058;17.220;2023-02-27T15:55:03;16;13;7
54021;PMS7003;39936;51.058;17.220;2023-02-27T15:59:08;13;13;8
54021;PMS7003;39936;51.058;17.220;2023-02-27T16:03:01;12;10;8
54021;PMS7003;39936;51.058;17.220;2023-02-27T16:06:24;17;14;9
54021;PMS7003;39936;51.058;17.220;2023-02-27T16:10:02;14;12;7
54021;PMS7003;39936;51.058;17.220;2023-02-27T16:14:00;19;16;9
54021;PMS7003;39936;51.058;17.220;2023-02-27T16:21:34;12;10;7
54021;PMS7003;39936;51.058;17.220;2023-02-27T16:25:16;14;7;4
54021;PMS7003;39936;51.058;17.220;2023-02-27T16:28:36;16;13;7
54021;PMS7003;39936;51.058;17.220;2023-02-27T16:32:00;12;8;6
54021;PMS7003;39936;51.058;17.220;2023-02-27T16:36:14;13;11;6
54021;PMS7003;39936;51.058;17.220;2023-02-27T16:43:36;14;11;8
54021;PMS7003;39936;51.058;17.220;2023-02-27T16:47:14;20;18;10
54021;PMS7003;39936;51.058;17.220;2023-02-27T16:51:14;14;14;7
54021;PMS7003;39936;51.058;17.220;2023-02-27T16:54:54;27;19;13
54021;PMS7003;39936;51.058;17.220;2023-02-27T16:58:38;19;16;13
54021;PMS7003;39936;51.058;17.220;2023-02-27T17:01:55;20;17;10
54021;PMS7003;39936;51.058;17.220;2023-02-27T17:05:14;20;16;10
54021;PMS7003;39936;51.058;17.220;2023-02-27T17:09:09;23;19;12
54021;PMS7003;39936;51.058;17.220;2023-02-27T17:13:02;29;22;15
54021;PMS7003;39936;51.058;17.220;2023-02-27T17:17:16;21;16;10
54021;PMS7003;39936;51.058;17.220;2023-02-27T17:21:14;22;15;10
54021;PMS7003;39936;51.058;17.220;2023-02-27T17:24:52;18;13;9
54021;PMS7003;39936;51.058;17.220;2023-02-27T17:28:52;24;17;9
54021;PMS7003;39936;51.058;17.220;2023-02-27T17:32:11;23;18;12
54021;PMS7003;39936;51.058;17.220;2023-02-27T17:35:29;16;11;7
54021;PMS7003;39936;51.058;17.220;2023-02-27T17:39:22;22;15;10
54021;PMS7003;39936;51.058;17.220;2023-02-27T17:42:59;17;14;9
54021;PMS7003;39936;51.058;17.220;2023-02-27T17:46:33;36;30;17
54021;PMS7003;39936;51.058;17.220;2023-02-27T17:50:23;21;19;12
54021;PMS7003;39936;51.058;17.220;2023-02-27T17:54:00;20;19;14
54021;PMS7003;39936;51.058;17.220;2023-02-27T17:58:08;28;19;13
54021;PMS7003;39936;51.058;17.220;2023-02-27T18:01:27;36;27;18
54021;PMS7003;39936;51.058;17.220;2023-02-27T18:05:18;26;22;13
54021;PMS7003;39936;51.058;17.220;2023-02-27T18:12:48;29;24;15
54021;PMS7003;39936;51.058;17.220;2023-02-27T18:16:45;25;20;12
54021;PMS7003;39936;51.058;17.220;2023-02-27T18:20:25;20;17;10
54021;PMS7003;39936;51.058;17.220;2023-02-27T18:24:02;18;15;11
54021;PMS7003;39936;51.058;17.220;2023-02-27T18:27:52;41;36;23
54021;PMS7003;39936;51.058;17.220;2023-02-27T18:35:15;49;41;26
54021;PMS7003;39936;51.058;17.220;2023-02-27T18:39:05;29;26;17
54021;PMS7003;39936;51.058;17.220;2023-02-27T18:42:34;32;27;18
54021;PMS7003;39936;51.058;17.220;2023-02-27T18:46:10;49;38;25
54021;PMS7003;39936;51.058;17.220;2023-02-27T18:49:50;52;41;27
54021;PMS7003;39936;51.058;17.220;2023-02-27T18:53:07;35;30;21
54021;PMS7003;39936;51.058;17.220;2023-02-27T18:56:44;36;29;17
54021;PMS7003;39936;51.058;17.220;2023-02-27T19:00:06;47;38;23
54021;PMS7003;39936;51.058;17.220;2023-02-27T19:03:55;56;45;27
54021;PMS7003;39936;51.058;17.220;2023-02-27T19:07:50;92;67;43
54021;PMS7003;39936;51.058;17.220;2023-02-27T19:11:20;77;58;36
54021;PMS7003;39936;51.058;17.220;2023-02-27T19:15:01;64;50;33
54021;PMS7003;39936;51.058;17.220;2023-02-27T19:18:19;68;50;32
54021;PMS7003;39936;51.058;17.220;2023-02-27T19:22:44;46;37;24
54021;PMS7003;39936;51.058;17.220;2023-02-27T19:26:24;39;31;21
54021;PMS7003;39936;51.058;17.220;2023-02-27T19:30:14;49;38;24
54021;PMS7003;39936;51.058;17.220;2023-02-27T19:33:57;54;42;25
54021;PMS7003;39936;51.058;17.220;2023-02-27T19:37:20;44;34;21
54021;PMS7003;39936;51.058;17.220;2023-02-27T19:40:42;64;45;29
54021;PMS7003;39936;51.058;17.220;2023-02-27T19:44:05;61;48;31
54021;PMS7003;39936;51.058;17.220;2023-02-27T19:47:28;58;44;29
54021;PMS7003;39936;51.058;17.220;2023-02-27T19:50:47;57;48;31
54021;PMS7003;39936;51.058;17.220;2023-02-27T19:54:05;44;35;23
54021;PMS7003;39936;51.058;17.220;2023-02-27T20:01:26;68;51;33
54021;PMS7003;39936;51.058;17.220;2023-02-27T20:05:01;62;48;28
54021;PMS7003;39936;51.058;17.220;2023-02-27T20:08:25;59;45;29
54021;PMS7003;39936;51.058;17.220;2023-02-27T20:12:20;66;51;32
54021;PMS7003;39936;51.058;17.220;2023-02-27T20:16:24;75;55;35
54021;PMS7003;39936;51.058;17.220;2023-02-27T20:20:29;77;55;35
54021;PMS7003;39936;51.058;17.220;2023-02-27T20:24:33;77;58;36
54021;PMS7003;39936;51.058;17.220;2023-02-27T20:28:26;74;57;37
54021;PMS7003;39936;51.058;17.220;2023-02-27T20:32:23;77;57;38
54021;PMS7003;39936;51.058;17.220;2023-02-27T20:35:41;67;53;32
54021;PMS7003;39936;51.058;17.220;2023-02-27T20:39:25;61;46;28
54021;PMS7003;39936;51.058;17.220;2023-02-27T20:42:44;46;38;24
54021;PMS7003;39936;51.058;17.220;2023-02-27T20:46:41;32;28;17
54021;PMS7003;39936;51.058;17.220;2023-02-27T20:50:22;34;28;20
54021;PMS7003;39936;51.058;17.220;2023-02-27T20:54:52;67;51;32
54021;PMS7003;39936;51.058;17.220;2023-02-27T20:58:12;39;33;21
54021;PMS7003;39936;51.058;17.220;2023-02-27T21:01:49;51;41;25
54021;PMS7003;39936;51.058;17.220;2023-02-27T21:05:24;54;42;27
54021;PMS7003;39936;51.058;17.220;2023-02-27T21:09:14;45;37;25
54021;PMS7003;39936;51.058;17.220;2023-02-27T21:13:14;60;46;29
54021;PMS7003;39936;51.058;17.220;2023-02-27T21:16:59;72;56;36
54021;PMS7003;39936;51.058;17.220;2023-02-27T21:20:28;73;58;38
54021;PMS7003;39936;51.058;17.220;2023-02-27T21:23:51;80;59;37
54021;PMS7003;39936;51.058;17.220;2023-02-27T21:27:13;77;56;36
54021;PMS7003;39936;51.058;17.220;2023-02-27T21:30:40;84;64;41
54021;PMS7003;39936;51.058;17.220;2023-02-27T21:34:26;88;64;41
54021;PMS7003;39936;51.058;17.220;2023-02-27T21:37:45;70;53;36
54021;PMS7003;39936;51.058;17.220;2023-02-27T21:41:33;72;57;36
54021;PMS7003;39936;51.058;17.220;2023-02-27T21:45:22;70;53;33
54021;PMS7003;39936;51.058;17.220;2023-02-27T21:53:06;68;51;34
54021;PMS7003;39936;51.058;17.220;2023-02-27T21:56:28;72;55;34
54021;PMS7003;39936;51.058;17.220;2023-02-27T22:00:11;72;54;33
54021;PMS7003;39936;51.058;17.220;2023-02-27T22:03:38;103;80;44
54021;PMS7003;39936;51.058;17.220;2023-02-27T22:07:19;118;89;47
54021;PMS7003;39936;51.058;17.220;2023-02-27T22:10:44;99;71;44
54021;PMS7003;39936;51.058;17.220;2023-02-27T22:14:48;93;69;40
54021;PMS7003;39936;51.058;17.220;2023-02-27T22:18:30;77;57;36
54021;PMS7003;39936;51.058;17.220;2023-02-27T22:22:22;94;70;41
54021;PMS7003;39936;51.058;17.220;2023-02-27T22:26:06;77;59;38
54021;PMS7003;39936;51.058;17.220;2023-02-27T22:30:01;80;62;36
54021;PMS7003;39936;51.058;17.220;2023-02-27T22:34:13;93;69;42
54021;PMS7003;39936;51.058;17.220;2023-02-27T22:38:41;81;63;39
54021;PMS7003;39936;51.058;17.220;2023-02-27T22:42:21;81;61;39
54021;PMS7003;39936;51.058;17.220;2023-02-27T22:46:08;89;65;41
54021;PMS7003;39936;51.058;17.220;2023-02-27T22:49:31;77;57;35
54021;PMS7003;39936;51.058;17.220;2023-02-27T22:53:22;99;79;45
54021;PMS7003;39936;51.058;17.220;2023-02-27T22:56:44;85;64;37
54021;PMS7003;39936;51.058;17.220;2023-02-27T23:00:36;70;52;32
54021;PMS7003;39936;51.058;17.220;2023-02-27T23:04:21;55;41;27
54021;PMS7003;39936;51.058;17.220;2023-02-27T23:08:08;89;68;41
54021;PMS7003;39936;51.058;17.220;2023-02-27T23:11:57;74;56;33
54021;PMS7003;39936;51.058;17.220;2023-02-27T23:15:20;62;43;27
54021;PMS7003;39936;51.058;17.220;2023-02-27T23:19:02;59;45;28
54021;PMS7003;39936;51.058;17.220;2023-02-27T23:22:57;50;41;27
54021;PMS7003;39936;51.058;17.220;2023-02-27T23:26:19;56;44;28
54021;PMS7003;39936;51.058;17.220;2023-02-27T23:30:15;59;45;29
54021;PMS7003;39936;51.058;17.220;2023-02-27T23:34:01;56;43;28
54021;PMS7003;39936;51.058;17.220;2023-02-27T23:37:54;75;54;36
54021;PMS7003;39936;51.058;17.220;2023-02-27T23:41:57;68;51;31
54021;PMS7003;39936;51.058;17.220;2023-02-27T23:46:04;66;50;31
54021;PMS7003;39936;51.058;17.220;2023-02-27T23:49:30;67;52;32
54021;PMS7003;39936;51.058;17.220;2023-02-27T23:52:53;60;46;30
54021;PMS7003;39936;51.058;17.220;2023-02-27T23:56:35;65;51;32
